LFKC Airport Information

Runway Information
Runway 18 Length 7579 ft width 131 ft
Elevation 63 ft Threshold 0 ft Heading 179
Runway 36 Length 7579 ft Width 131 ft
Elevation 198 ft Threshold 656 ft Heading 359
Airport Frequencies
Type ATIS Name CALVI ATIS Frequency 131.175 MHZ
Type GND Name CALVI GND Frequency 121.7 MHZ
Type TWR Name CALVI TWR Frequency 120.8 MHZ
Airport Navaids
Type NDB Name Calvi Frequency 375 KHZ
Airport Weather Information & NOTAM
ADDS - METARS form results

(0325 UTC 19 August 2018)
 
METAR text: LFKC 190300Z AUTO 18003KT CAVOK 20/16 Q1016 NOSIG
Conditions at: LFKC (CALVI/ST. CATHER, FR) observed 0300 UTC 19 August 2018
Temperature: 20.0°C (68°F)
Dewpoint: 16.0°C (61°F) [RH = 78%]
Pressure (altimeter): 30.00 inches Hg (1016.0 mb)
Winds: from the S (180 degrees) at 3 MPH (3 knots; 1.6 m/s)
Visibility: 6 or more miles (10+ km)
Ceiling: ceiling and visibility are OK
Clouds: unknown
Weather: no significant weather observed at this time

METAR text: LFKC 190230Z AUTO 19003KT 170V230 9999 FEW001 20/17 Q1016 NOSIG
Conditions at: LFKC (CALVI/ST. CATHER, FR) observed 0230 UTC 19 August 2018
Temperature: 20.0°C (68°F)
Dewpoint: 17.0°C (63°F) [RH = 83%]
Pressure (altimeter): 30.00 inches Hg (1016.0 mb)
Winds: from the S (190 degrees) at 3 MPH (3 knots; 1.6 m/s)
Visibility: 6 or more miles (10+ km)
Ceiling: at least 12,000 feet AGL
Clouds: few clouds at 100 feet AGL
Weather: no significant weather observed at this time